Time;durP1;ratioP1;P1;durP2;ratioP2;P2;SDS_P1;SDS_P2;PMS_P1;PMS_P2;Temp;Humidity;BMP_temperature;BMP_pressure;BME280_temperature;BME280_humidity;BME280_pressure;Samples;Min_cycle;Max_cycle;Signal;HPM_P1;HPM_P2
2023/05/28 00:02:48;;;;;;;5.90;3.20;;;;;;;17.53;45.80;99336.53;7441804;39;20376;31
2023/05/28 00:08:23;;;;;;;7.27;3.23;;;;;;;17.45;46.34;99327.72;7422054;39;20242;31
2023/05/28 00:13:44;;;;;;;6.70;3.40;;;;;;;17.41;46.80;99334.62;7439400;39;20257;31
2023/05/28 00:19:17;;;;;;;7.50;3.30;;;;;;;17.30;46.88;99324.31;7418714;39;20385;31
2023/05/28 00:24:53;;;;;;;5.85;3.55;;;;;;;17.11;47.96;99334.94;7399758;39;20265;31
2023/05/28 00:30:29;;;;;;;5.70;2.90;;;;;;;17.06;47.84;99328.47;7394897;39;20354;31
2023/05/28 00:36:03;;;;;;;6.23;3.27;;;;;;;16.97;47.58;99330.53;7447151;39;20289;31
2023/05/28 00:41:40;;;;;;;5.73;3.30;;;;;;;16.85;47.97;99320.44;7421769;39;20412;31
2023/05/28 00:47:13;;;;;;;9.10;3.53;;;;;;;16.75;47.71;99323.53;7408256;39;20247;31
2023/05/28 00:52:49;;;;;;;6.23;3.33;;;;;;;16.79;48.76;99324.81;7379886;39;20262;31
2023/05/28 01:03:29;;;;;;;5.37;2.80;;;;;;;16.85;48.13;99317.72;7393528;39;20259;31
2023/05/28 01:14:08;;;;;;;4.60;3.10;;;;;;;16.65;48.77;99323.91;7419972;38;20475;31
2023/05/28 01:24:47;;;;;;;6.42;2.98;;;;;;;16.42;50.18;99308.88;7492036;38;20270;31
2023/05/28 01:30:20;;;;;;;6.10;3.10;;;;;;;16.11;49.61;99303.88;7401216;39;20242;31
2023/05/28 01:35:55;;;;;;;8.40;3.40;;;;;;;15.96;49.52;99317.59;7381692;39;20262;31
2023/05/28 01:41:31;;;;;;;7.47;3.57;;;;;;;16.06;49.95;99309.09;7336863;39;20310;31
2023/05/28 01:47:06;;;;;;;8.33;3.20;;;;;;;16.04;50.63;99301.13;7365578;39;21376;31
2023/05/28 01:52:41;;;;;;;6.63;3.20;;;;;;;15.97;50.01;99311.09;7357354;39;20282;31
2023/05/28 02:03:23;;;;;;;5.60;3.20;;;;;;;16.05;50.96;99319.12;7362525;39;20488;31
2023/05/28 02:08:39;;;;;;;6.33;3.20;;;;;;;16.17;50.68;99306.66;7391945;39;20238;31
2023/05/28 02:13:59;;;;;;;5.73;3.40;;;;;;;16.17;50.41;99312.09;7464499;38;20310;31
2023/05/28 02:19:34;;;;;;;7.10;3.50;;;;;;;16.01;50.66;99308.84;7462767;39;20340;31
2023/05/28 02:25:08;;;;;;;8.30;3.73;;;;;;;15.62;51.55;99306.69;7442991;39;20363;31
2023/05/28 02:30:28;;;;;;;5.57;3.13;;;;;;;15.62;51.97;99307.50;7241020;39;21248;31
2023/05/28 02:36:04;;;;;;;9.07;3.63;;;;;;;15.69;51.91;99293.97;7441899;39;20241;31
2023/05/28 02:41:25;;;;;;;8.00;3.67;;;;;;;15.66;52.14;99300.66;7443409;39;20331;31
2023/05/28 02:47:00;;;;;;;6.47;3.30;;;;;;;15.39;52.88;99295.16;7442501;39;20241;31
2023/05/28 02:52:36;;;;;;;6.27;3.30;;;;;;;15.32;53.26;99289.63;7456915;39;20268;31
2023/05/28 03:03:00;;;;;;;7.20;3.53;;;;;;;15.26;52.59;99294.00;7464340;39;20575;31
2023/05/28 03:13:39;;;;;;;7.40;3.90;;;;;;;15.27;52.98;99292.09;7447047;39;20371;31
2023/05/28 03:19:14;;;;;;;7.55;4.00;;;;;;;15.09;54.41;99295.28;7445794;39;20294;31
2023/05/28 03:29:52;;;;;;;5.53;3.53;;;;;;;15.09;54.01;99297.16;7442656;39;20574;31
2023/05/28 03:35:12;;;;;;;5.57;3.53;;;;;;;14.94;53.79;99302.63;7443936;39;20236;31
2023/05/28 03:40:33;;;;;;;7.63;3.87;;;;;;;14.74;54.54;99307.00;7422898;39;20240;31
2023/05/28 03:46:09;;;;;;;7.20;3.60;;;;;;;14.59;55.81;99295.31;7451656;39;20233;31
2023/05/28 03:51:29;;;;;;;6.20;3.60;;;;;;;14.61;54.99;99304.12;7467621;39;20384;31
2023/05/28 04:02:09;;;;;;;6.83;3.60;;;;;;;14.70;55.68;99300.28;7400043;39;20294;31
2023/05/28 04:12:46;;;;;;;6.45;3.33;;;;;;;14.88;54.50;99308.81;7463183;38;20308;31
2023/05/28 04:18:20;;;;;;;6.72;3.45;;;;;;;14.95;54.64;99298.03;7473899;39;20254;31
2023/05/28 04:23:55;;;;;;;8.97;3.90;;;;;;;14.74;55.74;99309.72;7465103;39;20328;31
2023/05/28 04:29:16;;;;;;;8.20;3.83;;;;;;;14.65;55.44;99313.56;7444284;39;20330;31
2023/05/28 04:39:53;;;;;;;6.15;3.80;;;;;;;14.83;56.45;99322.13;7422264;39;20335;31
2023/05/28 04:45:28;;;;;;;7.70;4.00;;;;;;;14.98;55.74;99322.91;7406277;39;20354;31
2023/05/28 04:51:03;;;;;;;5.77;3.63;;;;;;;14.84;56.58;99321.94;7423119;39;20316;31
2023/05/28 04:56:39;;;;;;;5.50;3.63;;;;;;;14.85;56.77;99328.19;7444908;39;20239;31
2023/05/28 05:02:16;;;;;;;6.20;3.70;;;;;;;15.05;56.36;99325.72;7381425;39;20256;31
2023/05/28 05:07:51;;;;;;;11.90;4.00;;;;;;;15.21;56.40;99322.75;7337512;39;20255;31
2023/05/28 05:13:25;;;;;;;6.43;3.50;;;;;;;15.31;56.27;99326.81;7338673;39;21359;31
2023/05/28 05:24:02;;;;;;;9.60;3.60;;;;;;;15.80;55.26;99330.66;7439962;39;20290;31
2023/05/28 05:29:38;;;;;;;5.95;3.60;;;;;;;16.06;53.72;99339.03;7430513;39;20306;31
2023/05/28 05:35:14;;;;;;;6.30;3.65;;;;;;;16.28;53.66;99337.06;7421866;39;20341;31
2023/05/28 05:40:34;;;;;;;7.43;3.90;;;;;;;16.39;53.09;99334.62;7358316;39;20237;31
2023/05/28 05:46:10;;;;;;;5.47;3.87;;;;;;;16.54;52.91;99329.06;7404355;39;20251;31
2023/05/28 05:51:32;;;;;;;7.85;3.75;;;;;;;16.74;52.76;99329.16;7406903;39;20345;31
2023/05/28 05:56:52;;;;;;;6.47;3.80;;;;;;;16.94;52.76;99340.97;7402480;39;20254;31
2023/05/28 06:02:25;;;;;;;8.53;3.93;;;;;;;17.12;52.37;99333.06;7383090;39;20239;31
2023/05/28 06:07:45;;;;;;;7.20;3.70;;;;;;;17.36;51.99;99334.41;7407893;39;20256;31
2023/05/28 06:18:37;;;;;;;7.70;4.00;;;;;;;17.61;51.57;99331.94;7367011;39;20270;31
2023/05/28 06:29:02;;;;;;;7.80;3.87;;;;;;;17.94;51.32;99330.91;7379172;39;20275;31
2023/05/28 06:34:36;;;;;;;7.90;3.30;;;;;;;18.07;50.58;99329.22;7384101;39;20265;31
2023/05/28 06:39:56;;;;;;;9.45;3.50;;;;;;;18.21;49.54;99331.69;7425228;39;20731;31
2023/05/28 06:45:18;;;;;;;7.05;3.55;;;;;;;18.44;49.87;99332.09;7423078;39;20276;31
2023/05/28 06:50:52;;;;;;;9.27;3.90;;;;;;;18.57;48.99;99338.59;7360829;39;20257;31
2023/05/28 06:56:27;;;;;;;6.35;3.55;;;;;;;18.74;47.82;99326.97;7368254;39;20286;31
2023/05/28 07:01:49;;;;;;;6.75;3.75;;;;;;;18.93;48.31;99336.16;7380488;39;20263;31
2023/05/28 07:07:26;;;;;;;7.67;3.83;;;;;;;19.02;48.73;99342.19;7411614;39;20238;31
2023/05/28 07:13:00;;;;;;;7.83;4.03;;;;;;;19.12;47.81;99345.31;7442827;39;20324;31
2023/05/28 07:18:22;;;;;;;7.80;3.85;;;;;;;19.30;46.93;99350.91;7453738;38;20237;31
2023/05/28 07:23:56;;;;;;;7.17;3.93;;;;;;;19.40;46.90;99344.94;7487755;38;20260;31
2023/05/28 07:29:32;;;;;;;6.60;3.90;;;;;;;19.61;47.74;99356.41;7502004;38;20233;31
2023/05/28 07:35:08;;;;;;;10.87;3.97;;;;;;;19.89;47.44;99360.59;7510967;38;20241;31
2023/05/28 07:40:44;;;;;;;6.00;3.70;;;;;;;20.07;45.16;99355.19;7513297;38;20335;31
2023/05/28 07:46:21;;;;;;;11.20;3.80;;;;;;;20.24;45.58;99354.41;7514418;38;20372;31
2023/05/28 07:51:55;;;;;;;9.20;4.30;;;;;;;20.42;44.94;99356.38;7462906;39;20277;31
2023/05/28 08:02:36;;;;;;;6.27;3.73;;;;;;;20.85;43.64;99341.75;7464822;39;20257;31
2023/05/28 08:13:15;;;;;;;8.27;3.80;;;;;;;21.28;42.84;99347.97;7516447;38;20261;31
2023/05/28 08:23:56;;;;;;;7.05;3.97;;;;;;;21.57;41.88;99325.19;7497778;38;20253;31
2023/05/28 08:34:22;;;;;;;5.85;3.90;;;;;;;21.88;40.67;99324.06;7498557;38;20254;31
2023/05/28 08:45:02;;;;;;;8.45;3.80;;;;;;;22.20;41.26;99310.88;7463844;39;20266;31
2023/05/28 08:50:37;;;;;;;9.10;3.80;;;;;;;22.44;40.83;99307.03;7443509;39;20284;31
2023/05/28 08:56:12;;;;;;;5.60;3.60;;;;;;;22.62;40.69;99311.56;7461928;38;20358;31
2023/05/28 09:01:50;;;;;;;7.10;3.70;;;;;;;22.70;39.91;99311.19;7465913;39;20238;31
2023/05/28 09:07:26;;;;;;;6.40;3.60;;;;;;;22.90;38.90;99303.38;7422943;39;20376;31
2023/05/28 09:13:12;;;;;;;8.90;3.70;;;;;;;23.05;38.42;99307.50;7420930;39;20357;31
2023/05/28 09:18:48;;;;;;;6.20;4.08;;;;;;;23.16;38.32;99309.41;7399673;39;20359;31
2023/05/28 09:24:09;;;;;;;7.53;3.97;;;;;;;23.35;38.27;99308.09;7403041;39;20325;31
2023/05/28 09:29:30;;;;;;;8.57;3.80;;;;;;;23.51;39.16;99296.34;7419808;39;20270;31
2023/05/28 09:40:16;;;;;;;6.95;3.80;;;;;;;23.85;37.97;99293.59;7463172;39;20262;31
2023/05/28 09:45:52;;;;;;;6.00;3.60;;;;;;;23.93;37.84;99287.69;7442674;39;20249;31
2023/05/28 09:51:29;;;;;;;9.35;4.07;;;;;;;24.10;37.15;99281.06;7485382;38;20272;31
2023/05/28 09:57:05;;;;;;;6.55;3.80;;;;;;;24.23;37.94;99288.19;7512543;38;20237;31
2023/05/28 10:02:40;;;;;;;10.80;4.53;;;;;;;24.31;36.52;99281.44;7283279;39;20379;31
2023/05/28 10:08:15;;;;;;;7.97;3.72;;;;;;;24.56;35.94;99288.12;7489918;38;20281;31
2023/05/28 10:13:51;;;;;;;8.55;3.90;;;;;;;24.49;35.25;99292.97;7495280;38;21432;31
2023/05/28 10:19:28;;;;;;;5.80;3.95;;;;;;;24.62;35.79;99289.00;7492724;39;21311;31
2023/05/28 10:25:02;;;;;;;6.53;4.10;;;;;;;24.82;33.97;99281.00;7512659;38;21395;31
2023/05/28 10:30:48;;;;;;;10.03;4.13;;;;;;;25.03;36.25;99277.44;7491116;38;21362;31
2023/05/28 10:36:24;;;;;;;7.90;3.80;;;;;;;25.09;34.95;99275.56;7493274;39;20251;31
2023/05/28 10:41:59;;;;;;;7.14;4.12;;;;;;;25.21;35.26;99280.94;7443070;39;20307;31
2023/05/28 10:52:40;;;;;;;8.95;4.10;;;;;;;25.62;33.74;99272.00;7462447;39;20358;31
2023/05/28 11:03:05;;;;;;;9.53;4.03;;;;;;;25.65;34.79;99273.38;7516078;38;20265;31
2023/05/28 11:08:41;;;;;;;7.03;3.97;;;;;;;25.69;33.35;99267.09;7492498;38;21474;31
2023/05/28 11:14:17;;;;;;;10.43;4.18;;;;;;;25.75;33.46;99249.47;7514473;38;20253;31
2023/05/28 11:19:57;;;;;;;9.10;4.20;;;;;;;25.71;32.06;99262.13;7509225;38;20293;31
2023/05/28 11:25:32;;;;;;;7.70;4.20;;;;;;;26.01;32.85;99258.78;7492107;39;20231;31
2023/05/28 11:31:11;;;;;;;6.67;3.70;;;;;;;26.22;31.80;99263.38;7379783;39;20229;31
2023/05/28 11:36:46;;;;;;;6.20;3.50;;;;;;;26.23;32.56;99239.34;7403315;39;20354;31
2023/05/28 11:42:24;;;;;;;5.93;3.87;;;;;;;26.30;33.54;99250.97;7382126;39;20258;31
2023/05/28 11:47:46;;;;;;;5.55;3.85;;;;;;;26.34;33.23;99243.81;7417541;39;20272;31
2023/05/28 11:53:19;;;;;;;6.45;3.50;;;;;;;26.24;30.22;99239.03;7400330;39;20448;31
2023/05/28 11:58:54;;;;;;;6.34;3.74;;;;;;;26.46;32.13;99236.13;7410521;39;20270;31
2023/05/28 12:04:15;;;;;;;7.35;3.78;;;;;;;26.83;31.12;99236.00;7421520;39;20235;31
2023/05/28 12:09:49;;;;;;;6.75;4.05;;;;;;;26.83;30.71;99239.63;7398238;39;20260;31
2023/05/28 12:15:26;;;;;;;5.90;3.75;;;;;;;26.80;31.60;99231.87;7342905;39;20256;31
2023/05/28 12:21:01;;;;;;;9.13;4.23;;;;;;;26.93;31.41;99232.50;7421512;39;20310;31
2023/05/28 12:26:22;;;;;;;7.20;4.20;;;;;;;27.08;30.66;99226.97;7421606;39;20246;31
2023/05/28 12:31:58;;;;;;;8.50;4.47;;;;;;;26.98;29.81;99229.75;7417946;39;20274;31
2023/05/28 12:37:34;;;;;;;9.50;4.55;;;;;;;27.02;30.76;99219.78;7466804;39;20323;31
2023/05/28 12:42:55;;;;;;;8.40;4.40;;;;;;;27.16;30.68;99216.19;7468006;39;20249;31
2023/05/28 12:48:27;;;;;;;8.55;4.40;;;;;;;27.17;31.51;99211.50;7429149;39;20291;31
2023/05/28 12:59:08;;;;;;;8.60;4.50;;;;;;;27.21;30.31;99207.91;7444328;39;20269;31
2023/05/28 13:09:48;;;;;;;5.83;4.20;;;;;;;27.44;30.11;99195.47;7464127;39;20470;31
2023/05/28 13:15:10;;;;;;;8.10;4.00;;;;;;;27.29;30.47;99187.97;7444095;39;20254;31
2023/05/28 13:20:46;;;;;;;7.32;4.60;;;;;;;27.53;29.68;99184.72;7446839;39;20258;31
2023/05/28 13:26:22;;;;;;;7.40;4.40;;;;;;;27.54;29.52;99180.84;7418240;39;20294;31
2023/05/28 13:31:57;;;;;;;6.55;4.55;;;;;;;27.62;31.20;99183.88;7448478;39;20296;31
2023/05/28 13:37:33;;;;;;;6.62;4.20;;;;;;;27.73;29.96;99185.50;7442400;39;20416;31
2023/05/28 13:43:11;;;;;;;7.45;4.35;;;;;;;27.71;28.93;99170.28;7480296;38;20782;31
2023/05/28 13:48:45;;;;;;;9.25;4.72;;;;;;;27.83;30.80;99172.75;7512675;38;20345;31
2023/05/28 13:54:20;;;;;;;9.05;4.95;;;;;;;27.93;29.94;99167.22;7494898;38;21245;31
2023/05/28 13:59:57;;;;;;;8.23;6.43;;;;;;;28.01;30.34;99148.06;7474352;39;20360;31
2023/05/28 14:05:32;;;;;;;9.07;4.70;;;;;;;28.18;30.04;99150.53;7486633;39;20336;31
2023/05/28 14:10:53;;;;;;;8.65;5.35;;;;;;;28.13;30.84;99147.78;7512502;38;21280;31
2023/05/28 14:16:27;;;;;;;9.18;6.64;;;;;;;28.01;31.21;99134.22;7442638;39;20639;31
2023/05/28 14:21:48;;;;;;;10.00;6.78;;;;;;;28.21;31.88;99141.69;7443028;39;20273;31
2023/05/28 14:27:09;;;;;;;8.05;4.62;;;;;;;28.11;29.56;99127.84;7466876;39;20253;31
2023/05/28 14:32:44;;;;;;;9.98;5.32;;;;;;;27.90;31.11;99135.38;7478883;38;20241;31
2023/05/28 14:38:20;;;;;;;6.40;4.50;;;;;;;27.95;31.39;99129.78;7498411;38;20256;31
2023/05/28 14:49:01;;;;;;;10.10;4.90;;;;;;;27.98;31.07;99114.53;7513017;38;20249;31
2023/05/28 14:59:26;;;;;;;9.10;4.60;;;;;;;28.02;30.79;99110.09;7441072;39;20332;31
2023/05/28 15:05:03;;;;;;;6.47;4.20;;;;;;;28.07;31.41;99115.63;7444348;39;20326;31
2023/05/28 15:15:27;;;;;;;7.55;4.40;;;;;;;28.03;31.79;99095.97;7513413;38;20254;31
2023/05/28 15:20:47;;;;;;;8.27;4.10;;;;;;;28.12;30.24;99099.00;7512320;38;21310;31
2023/05/28 15:26:25;;;;;;;9.18;4.80;;;;;;;27.98;30.67;99078.53;7488844;39;20238;31
2023/05/28 15:32:01;;;;;;;6.53;4.47;;;;;;;27.97;30.17;99077.69;7493036;39;20242;31
2023/05/28 15:37:21;;;;;;;7.15;4.57;;;;;;;28.04;31.55;99075.44;7465698;39;20268;31
2023/05/28 15:48:02;;;;;;;8.70;4.50;;;;;;;27.94;30.16;99075.50;7465084;39;20282;31
2023/05/28 15:58:26;;;;;;;8.05;4.47;;;;;;;27.98;30.11;99075.75;7475203;38;20487;31
2023/05/28 16:09:08;;;;;;;6.35;4.30;;;;;;;27.77;30.04;99053.66;7442346;39;20298;31
2023/05/28 16:19:34;;;;;;;7.50;4.40;;;;;;;27.70;30.34;99061.44;7466994;39;20447;31
2023/05/28 16:30:15;;;;;;;7.93;5.10;;;;;;;27.55;30.48;99052.34;7464102;39;20294;31
2023/05/28 16:40:54;;;;;;;8.93;4.65;;;;;;;27.42;29.67;99042.66;7490647;38;21332;31
2023/05/28 16:46:31;;;;;;;8.96;4.90;;;;;;;27.31;30.49;99043.75;7462142;39;20265;31
2023/05/28 16:51:52;;;;;;;7.65;4.78;;;;;;;27.14;31.03;99044.06;7424014;39;20243;31
2023/05/28 16:57:28;;;;;;;7.60;4.68;;;;;;;26.92;30.46;99034.38;7361159;39;20254;31
2023/05/28 17:03:05;;;;;;;7.95;4.62;;;;;;;26.73;31.56;99028.53;7418564;39;20253;31
2023/05/28 17:08:24;;;;;;;6.62;4.47;;;;;;;26.49;31.28;99030.16;7221100;39;20239;31
2023/05/28 17:13:44;;;;;;;7.55;4.97;;;;;;;26.27;31.81;99031.25;7414315;39;20380;31
2023/05/28 17:19:20;;;;;;;8.93;5.17;;;;;;;26.00;31.36;99034.16;7399561;39;21381;31
2023/05/28 17:24:41;;;;;;;6.82;5.00;;;;;;;25.92;32.47;99040.22;7382745;39;20236;31
2023/05/28 17:30:16;;;;;;;7.43;4.85;;;;;;;25.77;32.21;99044.81;7355234;39;20368;31
2023/05/28 17:35:53;;;;;;;8.76;4.90;;;;;;;25.73;32.49;99046.47;7422543;39;20237;31
2023/05/28 17:41:29;;;;;;;6.10;4.27;;;;;;;25.60;32.95;99038.66;7423581;39;21262;31
2023/05/28 17:46:50;;;;;;;7.65;4.70;;;;;;;25.50;33.22;99064.25;7400888;39;20345;31
2023/05/28 17:52:27;;;;;;;6.66;4.80;;;;;;;25.34;33.00;99062.50;7410790;39;20382;31
2023/05/28 17:57:48;;;;;;;7.72;5.12;;;;;;;25.31;33.87;99074.06;7443609;39;20242;31
2023/05/28 18:03:23;;;;;;;9.00;5.00;;;;;;;25.14;34.29;99066.75;7487281;38;20347;31
2023/05/28 18:08:58;;;;;;;7.05;4.72;;;;;;;25.08;33.66;99069.75;7463461;39;20220;31
2023/05/28 18:14:20;;;;;;;7.47;4.40;;;;;;;25.05;34.49;99082.16;7466837;39;20237;31
2023/05/28 18:19:40;;;;;;;8.10;4.25;;;;;;;24.96;34.36;99078.22;7445725;39;20242;31
2023/05/28 18:25:16;;;;;;;7.53;4.40;;;;;;;24.89;34.93;99074.00;7451234;39;20427;31
2023/05/28 18:30:52;;;;;;;8.07;4.97;;;;;;;24.84;35.69;99095.97;7422591;39;20235;31
2023/05/28 18:36:27;;;;;;;7.80;4.55;;;;;;;24.68;35.96;99092.25;7397412;39;21350;31
2023/05/28 18:47:08;;;;;;;9.50;4.40;;;;;;;24.46;35.51;99099.72;7365863;39;20281;31
2023/05/28 18:52:44;;;;;;;6.10;4.80;;;;;;;24.39;35.62;99104.63;7396833;39;20267;31
2023/05/28 19:03:25;;;;;;;7.22;4.78;;;;;;;24.12;35.95;99110.88;7466130;39;20282;31
2023/05/28 19:13:51;;;;;;;6.15;4.15;;;;;;;24.00;35.89;99118.41;7479615;38;20270;31
2023/05/28 19:24:31;;;;;;;7.55;4.35;;;;;;;23.84;35.17;99130.31;7493512;38;20247;31
2023/05/28 19:35:11;;;;;;;5.80;4.43;;;;;;;23.68;37.48;99147.72;7473306;39;20368;31
2023/05/28 19:45:51;;;;;;;8.27;4.37;;;;;;;23.14;39.15;99143.78;7484450;38;20265;31
2023/05/28 19:56:31;;;;;;;7.57;4.62;;;;;;;22.76;40.60;99152.75;7447767;39;20363;31
2023/05/28 20:02:07;;;;;;;5.32;4.20;;;;;;;22.55;41.00;99158.91;7468058;39;20234;31
2023/05/28 20:07:29;;;;;;;8.77;4.70;;;;;;;22.38;41.81;99165.16;7396701;39;20247;31
2023/05/28 20:13:04;;;;;;;8.36;4.84;;;;;;;22.12;42.06;99164.84;7426272;39;20241;31
2023/05/28 20:18:40;;;;;;;7.72;4.80;;;;;;;21.91;42.42;99169.03;7425366;39;20246;31
2023/05/28 20:24:15;;;;;;;9.73;4.97;;;;;;;21.76;42.83;99171.47;7445495;39;20312;31
2023/05/28 20:29:50;;;;;;;7.80;4.78;;;;;;;21.61;42.62;99180.16;7438991;38;20307;31
2023/05/28 20:35:27;;;;;;;7.64;4.84;;;;;;;21.43;43.07;99172.03;7422582;39;20237;31
2023/05/28 20:41:03;;;;;;;7.95;4.90;;;;;;;21.37;43.41;99179.28;7469543;39;20234;31
2023/05/28 20:46:22;;;;;;;5.86;4.58;;;;;;;21.41;42.64;99177.75;7464770;39;20297;31
2023/05/28 20:51:56;;;;;;;6.68;4.47;;;;;;;21.38;43.49;99175.50;7409472;39;20253;31
2023/05/28 20:57:17;;;;;;;6.45;4.85;;;;;;;21.32;43.83;99176.44;7400239;39;20231;31
2023/05/28 21:02:53;;;;;;;7.28;4.70;;;;;;;21.20;43.50;99189.28;7401031;39;20265;31
2023/05/28 21:08:29;;;;;;;6.05;4.53;;;;;;;21.06;44.67;99179.59;7422817;39;20299;31
2023/05/28 21:13:49;;;;;;;7.35;4.75;;;;;;;21.02;44.40;99187.41;7402857;39;20233;31
2023/05/28 21:19:24;;;;;;;7.40;4.82;;;;;;;20.97;45.18;99186.47;7387304;39;20257;31
2023/05/28 21:25:00;;;;;;;8.27;4.85;;;;;;;20.88;45.45;99194.19;7424326;39;20254;31
2023/05/28 21:30:21;;;;;;;8.15;5.05;;;;;;;20.78;45.34;99185.69;7424191;39;20263;31
2023/05/28 21:35:57;;;;;;;6.70;3.85;;;;;;;20.60;45.61;99186.56;7431866;39;20258;31
2023/05/28 21:41:33;;;;;;;6.05;4.65;;;;;;;20.56;46.49;99190.84;7475094;38;20307;31
2023/05/28 21:46:53;;;;;;;8.63;4.15;;;;;;;20.49;46.12;99184.59;7500240;38;20238;31
2023/05/28 21:52:30;;;;;;;6.27;4.33;;;;;;;20.38;47.00;99174.44;7514613;38;20237;31
2023/05/28 21:58:21;;;;;;;7.22;4.47;;;;;;;20.27;46.08;99178.72;7485526;39;20369;31
2023/05/28 22:03:56;;;;;;;6.85;4.62;;;;;;;20.21;45.70;99181.56;7466989;39;20304;31
2023/05/28 22:09:16;;;;;;;5.80;4.30;;;;;;;20.30;46.26;99177.50;7443702;39;20242;31
2023/05/28 22:14:52;;;;;;;6.07;3.83;;;;;;;20.24;45.56;99189.31;7400592;39;20239;31
2023/05/28 22:20:27;;;;;;;5.90;3.67;;;;;;;20.20;46.20;99188.94;7410595;39;20342;31
2023/05/28 22:25:48;;;;;;;5.00;3.47;;;;;;;20.06;46.48;99192.87;7427522;39;20265;31
2023/05/28 22:36:27;;;;;;;5.35;3.45;;;;;;;20.16;45.22;99184.16;7405322;39;20271;31
2023/05/28 22:42:02;;;;;;;7.75;3.35;;;;;;;20.12;45.67;99185.69;7378453;39;20311;31
2023/05/28 22:47:40;;;;;;;4.90;3.25;;;;;;;20.13;43.85;99190.09;7317514;39;20257;31
2023/05/28 22:58:18;;;;;;;6.37;3.37;;;;;;;20.02;43.79;99179.88;7314085;39;20351;31
2023/05/28 23:03:53;;;;;;;5.20;3.47;;;;;;;20.01;44.01;99194.66;7362238;39;20243;31
2023/05/28 23:09:28;;;;;;;6.10;3.62;;;;;;;20.01;43.44;99206.41;7393375;39;20344;31
2023/05/28 23:15:04;;;;;;;6.25;3.42;;;;;;;20.02;44.86;99207.25;7464105;39;20242;31
2023/05/28 23:20:36;;;;;;;5.50;3.22;;;;;;;20.03;43.51;99214.41;7401700;39;20258;31
2023/05/28 23:25:57;;;;;;;8.52;3.50;;;;;;;19.99;44.81;99219.50;7400993;39;20255;31
2023/05/28 23:31:33;;;;;;;5.45;3.30;;;;;;;19.91;43.57;99210.75;7422508;39;20235;31
2023/05/28 23:37:09;;;;;;;6.68;3.70;;;;;;;19.84;43.98;99205.34;7451053;39;20309;31
2023/05/28 23:42:29;;;;;;;5.50;3.17;;;;;;;19.71;44.86;99219.12;7443090;39;20270;31
2023/05/28 23:53:09;;;;;;;8.15;3.40;;;;;;;19.53;44.49;99216.34;7400514;39;20262;31
